sensor_id;sensor_type;location;lat;lon;timestamp;temperature;humidity
46336;DHT22;31365;48.858;8.530;2023-11-21T00:00:39;9.10;99.90
46336;DHT22;31365;48.858;8.530;2023-11-21T00:03:09;9.10;99.90
46336;DHT22;31365;48.858;8.530;2023-11-21T00:05:38;9.10;99.90
46336;DHT22;31365;48.858;8.530;2023-11-21T00:08:08;9.10;99.90
46336;DHT22;31365;48.858;8.530;2023-11-21T00:10:37;9.10;99.90
46336;DHT22;31365;48.858;8.530;2023-11-21T00:13:06;9.10;99.90
46336;DHT22;31365;48.858;8.530;2023-11-21T00:15:34;9.20;99.90
46336;DHT22;31365;48.858;8.530;2023-11-21T00:18:03;9.10;99.90
46336;DHT22;31365;48.858;8.530;2023-11-21T00:20:32;9.10;99.90
46336;DHT22;31365;48.858;8.530;2023-11-21T00:23:00;9.10;99.90
46336;DHT22;31365;48.858;8.530;2023-11-21T00:25:29;9.10;99.90
46336;DHT22;31365;48.858;8.530;2023-11-21T00:27:58;9.00;99.90
46336;DHT22;31365;48.858;8.530;2023-11-21T00:30:28;9.00;99.90
46336;DHT22;31365;48.858;8.530;2023-11-21T00:32:58;9.00;99.90
46336;DHT22;31365;48.858;8.530;2023-11-21T00:35:27;9.00;99.90
46336;DHT22;31365;48.858;8.530;2023-11-21T00:37:55;9.00;99.90
46336;DHT22;31365;48.858;8.530;2023-11-21T00:40:25;9.00;99.90
46336;DHT22;31365;48.858;8.530;2023-11-21T00:42:54;9.00;99.90
46336;DHT22;31365;48.858;8.530;2023-11-21T00:45:24;9.10;99.90
46336;DHT22;31365;48.858;8.530;2023-11-21T00:47:52;9.10;99.90
46336;DHT22;31365;48.858;8.530;2023-11-21T00:50:21;9.10;99.90
46336;DHT22;31365;48.858;8.530;2023-11-21T00:52:51;9.10;99.90
46336;DHT22;31365;48.858;8.530;2023-11-21T00:55:19;9.10;99.90
46336;DHT22;31365;48.858;8.530;2023-11-21T00:57:48;9.20;99.90
46336;DHT22;31365;48.858;8.530;2023-11-21T01:00:17;9.20;99.90
46336;DHT22;31365;48.858;8.530;2023-11-21T01:02:45;9.20;99.90
46336;DHT22;31365;48.858;8.530;2023-11-21T01:05:14;9.20;99.90
46336;DHT22;31365;48.858;8.530;2023-11-21T01:07:42;9.20;99.90
46336;DHT22;31365;48.858;8.530;2023-11-21T01:10:12;9.20;99.90
46336;DHT22;31365;48.858;8.530;2023-11-21T01:12:40;9.20;99.90
46336;DHT22;31365;48.858;8.530;2023-11-21T01:15:09;9.20;99.90
46336;DHT22;31365;48.858;8.530;2023-11-21T01:17:38;9.10;99.90
46336;DHT22;31365;48.858;8.530;2023-11-21T01:20:08;9.10;99.90
46336;DHT22;31365;48.858;8.530;2023-11-21T01:22:41;9.10;99.90
46336;DHT22;31365;48.858;8.530;2023-11-21T01:25:11;9.10;99.90
46336;DHT22;31365;48.858;8.530;2023-11-21T01:27:42;9.10;99.90
46336;DHT22;31365;48.858;8.530;2023-11-21T01:30:11;9.10;99.90
46336;DHT22;31365;48.858;8.530;2023-11-21T01:32:39;9.10;99.90
46336;DHT22;31365;48.858;8.530;2023-11-21T01:35:08;9.10;99.90
46336;DHT22;31365;48.858;8.530;2023-11-21T01:37:37;9.10;99.90
46336;DHT22;31365;48.858;8.530;2023-11-21T01:40:07;9.10;99.90
46336;DHT22;31365;48.858;8.530;2023-11-21T01:42:41;9.10;99.90
46336;DHT22;31365;48.858;8.530;2023-11-21T01:45:10;9.10;99.90
46336;DHT22;31365;48.858;8.530;2023-11-21T01:47:40;9.10;99.90
46336;DHT22;31365;48.858;8.530;2023-11-21T01:50:14;9.10;99.90
46336;DHT22;31365;48.858;8.530;2023-11-21T01:52:44;9.10;99.90
46336;DHT22;31365;48.858;8.530;2023-11-21T01:55:15;9.20;99.90
46336;DHT22;31365;48.858;8.530;2023-11-21T01:57:57;9.10;99.90
46336;DHT22;31365;48.858;8.530;2023-11-21T02:00:26;9.10;99.90
46336;DHT22;31365;48.858;8.530;2023-11-21T02:02:56;9.10;99.90
46336;DHT22;31365;48.858;8.530;2023-11-21T02:05:24;9.10;99.90
46336;DHT22;31365;48.858;8.530;2023-11-21T02:07:53;9.10;99.90
46336;DHT22;31365;48.858;8.530;2023-11-21T02:10:21;9.10;99.90
46336;DHT22;31365;48.858;8.530;2023-11-21T02:12:51;9.10;99.90
46336;DHT22;31365;48.858;8.530;2023-11-21T02:15:22;9.10;99.90
46336;DHT22;31365;48.858;8.530;2023-11-21T02:17:53;9.10;99.90
46336;DHT22;31365;48.858;8.530;2023-11-21T02:20:22;9.10;99.90
46336;DHT22;31365;48.858;8.530;2023-11-21T02:22:55;9.10;99.90
46336;DHT22;31365;48.858;8.530;2023-11-21T02:25:29;9.00;99.90
46336;DHT22;31365;48.858;8.530;2023-11-21T02:27:58;9.10;99.90
46336;DHT22;31365;48.858;8.530;2023-11-21T02:30:27;9.10;99.90
46336;DHT22;31365;48.858;8.530;2023-11-21T02:32:55;9.00;99.90
46336;DHT22;31365;48.858;8.530;2023-11-21T02:35:25;9.10;99.90
46336;DHT22;31365;48.858;8.530;2023-11-21T02:37:55;9.00;99.90
46336;DHT22;31365;48.858;8.530;2023-11-21T02:40:24;9.10;99.90
46336;DHT22;31365;48.858;8.530;2023-11-21T02:42:54;9.10;99.90
46336;DHT22;31365;48.858;8.530;2023-11-21T02:45:22;9.10;99.90
46336;DHT22;31365;48.858;8.530;2023-11-21T02:47:51;9.10;99.90
46336;DHT22;31365;48.858;8.530;2023-11-21T02:50:20;9.10;99.90
46336;DHT22;31365;48.858;8.530;2023-11-21T02:52:50;9.10;99.90
46336;DHT22;31365;48.858;8.530;2023-11-21T02:55:21;9.10;99.90
46336;DHT22;31365;48.858;8.530;2023-11-21T02:57:53;9.00;99.90
46336;DHT22;31365;48.858;8.530;2023-11-21T03:00:23;9.00;99.90
46336;DHT22;31365;48.858;8.530;2023-11-21T03:02:55;9.00;99.90
46336;DHT22;31365;48.858;8.530;2023-11-21T03:05:25;9.00;99.90
46336;DHT22;31365;48.858;8.530;2023-11-21T03:07:53;8.90;99.90
46336;DHT22;31365;48.858;8.530;2023-11-21T03:10:23;8.90;99.90
46336;DHT22;31365;48.858;8.530;2023-11-21T03:12:51;8.90;99.90
46336;DHT22;31365;48.858;8.530;2023-11-21T03:15:19;8.90;99.90
46336;DHT22;31365;48.858;8.530;2023-11-21T03:17:47;8.80;99.90
46336;DHT22;31365;48.858;8.530;2023-11-21T03:20:17;8.80;99.90
46336;DHT22;31365;48.858;8.530;2023-11-21T03:22:45;8.90;99.90
46336;DHT22;31365;48.858;8.530;2023-11-21T03:25:14;8.80;99.90
46336;DHT22;31365;48.858;8.530;2023-11-21T03:27:45;8.80;99.90
46336;DHT22;31365;48.858;8.530;2023-11-21T03:30:14;8.80;99.90
46336;DHT22;31365;48.858;8.530;2023-11-21T03:32:43;8.70;99.90
46336;DHT22;31365;48.858;8.530;2023-11-21T03:35:14;8.70;99.90
46336;DHT22;31365;48.858;8.530;2023-11-21T03:37:42;8.70;99.90
46336;DHT22;31365;48.858;8.530;2023-11-21T03:40:11;8.70;99.90
46336;DHT22;31365;48.858;8.530;2023-11-21T03:42:40;8.70;99.90
46336;DHT22;31365;48.858;8.530;2023-11-21T03:45:10;8.80;99.90
46336;DHT22;31365;48.858;8.530;2023-11-21T03:47:40;8.80;99.90
46336;DHT22;31365;48.858;8.530;2023-11-21T03:50:08;8.80;99.90
46336;DHT22;31365;48.858;8.530;2023-11-21T03:52:37;8.90;99.90
46336;DHT22;31365;48.858;8.530;2023-11-21T03:55:06;8.80;99.90
46336;DHT22;31365;48.858;8.530;2023-11-21T03:57:34;8.90;99.90
46336;DHT22;31365;48.858;8.530;2023-11-21T04:00:04;8.90;99.90
46336;DHT22;31365;48.858;8.530;2023-11-21T04:02:39;8.90;99.90
46336;DHT22;31365;48.858;8.530;2023-11-21T04:05:08;8.80;99.90
46336;DHT22;31365;48.858;8.530;2023-11-21T04:07:36;8.80;99.90
46336;DHT22;31365;48.858;8.530;2023-11-21T04:10:08;8.80;99.90
46336;DHT22;31365;48.858;8.530;2023-11-21T04:12:36;8.80;99.90
46336;DHT22;31365;48.858;8.530;2023-11-21T04:15:05;8.70;99.90
46336;DHT22;31365;48.858;8.530;2023-11-21T04:17:36;8.70;99.90
46336;DHT22;31365;48.858;8.530;2023-11-21T04:20:09;8.70;99.90
46336;DHT22;31365;48.858;8.530;2023-11-21T04:22:38;8.70;99.90
46336;DHT22;31365;48.858;8.530;2023-11-21T04:25:09;8.70;99.90
46336;DHT22;31365;48.858;8.530;2023-11-21T04:27:39;8.70;99.90
46336;DHT22;31365;48.858;8.530;2023-11-21T04:30:08;8.70;99.90
46336;DHT22;31365;48.858;8.530;2023-11-21T04:32:36;8.70;99.90
46336;DHT22;31365;48.858;8.530;2023-11-21T04:35:08;8.70;99.90
46336;DHT22;31365;48.858;8.530;2023-11-21T04:37:37;8.70;99.90
46336;DHT22;31365;48.858;8.530;2023-11-21T04:40:06;8.70;99.90
46336;DHT22;31365;48.858;8.530;2023-11-21T04:42:35;8.80;99.90
46336;DHT22;31365;48.858;8.530;2023-11-21T04:45:04;8.80;99.90
46336;DHT22;31365;48.858;8.530;2023-11-21T04:47:36;8.70;99.90
46336;DHT22;31365;48.858;8.530;2023-11-21T04:50:05;8.70;99.90
46336;DHT22;31365;48.858;8.530;2023-11-21T04:52:35;8.70;99.90
46336;DHT22;31365;48.858;8.530;2023-11-21T04:55:04;8.70;99.90
46336;DHT22;31365;48.858;8.530;2023-11-21T04:57:33;8.70;99.90
46336;DHT22;31365;48.858;8.530;2023-11-21T05:00:01;8.70;99.90
46336;DHT22;31365;48.858;8.530;2023-11-21T05:02:32;8.70;99.90
46336;DHT22;31365;48.858;8.530;2023-11-21T05:05:02;8.70;99.90
46336;DHT22;31365;48.858;8.530;2023-11-21T05:07:32;8.70;99.90
46336;DHT22;31365;48.858;8.530;2023-11-21T05:10:05;8.80;99.90
46336;DHT22;31365;48.858;8.530;2023-11-21T05:12:37;8.80;99.90
46336;DHT22;31365;48.858;8.530;2023-11-21T05:15:07;8.80;99.90
46336;DHT22;31365;48.858;8.530;2023-11-21T05:17:36;8.80;99.90
46336;DHT22;31365;48.858;8.530;2023-11-21T05:20:07;8.80;99.90
46336;DHT22;31365;48.858;8.530;2023-11-21T05:22:36;8.80;99.90
46336;DHT22;31365;48.858;8.530;2023-11-21T05:25:08;8.80;99.90
46336;DHT22;31365;48.858;8.530;2023-11-21T05:27:36;8.90;99.90
46336;DHT22;31365;48.858;8.530;2023-11-21T05:30:05;8.90;99.90
46336;DHT22;31365;48.858;8.530;2023-11-21T05:32:36;8.90;99.90
46336;DHT22;31365;48.858;8.530;2023-11-21T05:35:04;8.90;99.90
46336;DHT22;31365;48.858;8.530;2023-11-21T05:37:36;8.90;99.90
46336;DHT22;31365;48.858;8.530;2023-11-21T05:40:08;8.90;99.90
46336;DHT22;31365;48.858;8.530;2023-11-21T05:42:37;8.90;99.90
46336;DHT22;31365;48.858;8.530;2023-11-21T05:45:06;8.90;99.90
46336;DHT22;31365;48.858;8.530;2023-11-21T05:47:37;8.80;99.90
46336;DHT22;31365;48.858;8.530;2023-11-21T05:50:07;8.80;99.90
46336;DHT22;31365;48.858;8.530;2023-11-21T05:52:39;8.80;99.90
46336;DHT22;31365;48.858;8.530;2023-11-21T05:55:09;8.80;99.90
46336;DHT22;31365;48.858;8.530;2023-11-21T05:57:38;8.70;99.90
46336;DHT22;31365;48.858;8.530;2023-11-21T06:00:08;8.80;99.90
46336;DHT22;31365;48.858;8.530;2023-11-21T06:02:45;8.80;99.90
46336;DHT22;31365;48.858;8.530;2023-11-21T06:05:13;8.80;99.90
46336;DHT22;31365;48.858;8.530;2023-11-21T06:07:41;8.70;99.90
46336;DHT22;31365;48.858;8.530;2023-11-21T06:10:11;8.80;99.90
46336;DHT22;31365;48.858;8.530;2023-11-21T06:12:41;8.80;99.90
46336;DHT22;31365;48.858;8.530;2023-11-21T06:15:11;8.80;99.90
46336;DHT22;31365;48.858;8.530;2023-11-21T06:17:41;8.80;99.90
46336;DHT22;31365;48.858;8.530;2023-11-21T06:20:12;8.80;99.90
46336;DHT22;31365;48.858;8.530;2023-11-21T06:22:42;8.80;99.90
46336;DHT22;31365;48.858;8.530;2023-11-21T06:25:12;8.80;99.90
46336;DHT22;31365;48.858;8.530;2023-11-21T06:27:43;8.70;99.90
46336;DHT22;31365;48.858;8.530;2023-11-21T06:30:13;8.70;99.90
46336;DHT22;31365;48.858;8.530;2023-11-21T06:32:42;8.70;99.90
46336;DHT22;31365;48.858;8.530;2023-11-21T06:35:14;8.70;99.90
46336;DHT22;31365;48.858;8.530;2023-11-21T06:37:44;8.70;99.90
46336;DHT22;31365;48.858;8.530;2023-11-21T06:40:18;8.70;99.90
46336;DHT22;31365;48.858;8.530;2023-11-21T06:42:47;8.70;99.90
46336;DHT22;31365;48.858;8.530;2023-11-21T06:45:17;8.70;99.90
46336;DHT22;31365;48.858;8.530;2023-11-21T06:47:45;8.80;99.90
46336;DHT22;31365;48.858;8.530;2023-11-21T06:50:14;8.70;99.90
46336;DHT22;31365;48.858;8.530;2023-11-21T06:52:42;8.80;99.90
46336;DHT22;31365;48.858;8.530;2023-11-21T06:55:11;8.80;99.90
46336;DHT22;31365;48.858;8.530;2023-11-21T06:57:41;8.80;99.90
46336;DHT22;31365;48.858;8.530;2023-11-21T07:00:10;8.80;99.90
46336;DHT22;31365;48.858;8.530;2023-11-21T07:02:39;8.80;99.90
46336;DHT22;31365;48.858;8.530;2023-11-21T07:05:08;8.80;99.90
46336;DHT22;31365;48.858;8.530;2023-11-21T07:07:36;8.80;99.90
46336;DHT22;31365;48.858;8.530;2023-11-21T07:10:05;8.80;99.90
46336;DHT22;31365;48.858;8.530;2023-11-21T07:12:34;8.80;99.90
46336;DHT22;31365;48.858;8.530;2023-11-21T07:15:04;8.90;99.90
46336;DHT22;31365;48.858;8.530;2023-11-21T07:17:36;8.90;99.90
46336;DHT22;31365;48.858;8.530;2023-11-21T07:20:08;8.90;99.90
46336;DHT22;31365;48.858;8.530;2023-11-21T07:22:36;8.90;99.90
46336;DHT22;31365;48.858;8.530;2023-11-21T07:25:04;8.90;99.90
46336;DHT22;31365;48.858;8.530;2023-11-21T07:27:34;8.90;99.90
46336;DHT22;31365;48.858;8.530;2023-11-21T07:30:05;8.90;99.90
46336;DHT22;31365;48.858;8.530;2023-11-21T07:32:35;9.00;99.90
46336;DHT22;31365;48.858;8.530;2023-11-21T07:35:04;9.00;99.90
46336;DHT22;31365;48.858;8.530;2023-11-21T07:37:35;9.00;99.90
46336;DHT22;31365;48.858;8.530;2023-11-21T07:40:04;9.00;99.90
46336;DHT22;31365;48.858;8.530;2023-11-21T07:42:35;9.00;99.90
46336;DHT22;31365;48.858;8.530;2023-11-21T07:45:06;9.00;99.90
46336;DHT22;31365;48.858;8.530;2023-11-21T07:47:35;9.00;99.90
46336;DHT22;31365;48.858;8.530;2023-11-21T07:50:04;9.00;99.90
46336;DHT22;31365;48.858;8.530;2023-11-21T07:52:35;9.10;99.90
46336;DHT22;31365;48.858;8.530;2023-11-21T07:55:03;9.10;99.90
46336;DHT22;31365;48.858;8.530;2023-11-21T07:57:32;9.10;99.90
46336;DHT22;31365;48.858;8.530;2023-11-21T08:00:00;9.10;99.90
46336;DHT22;31365;48.858;8.530;2023-11-21T08:02:39;9.20;99.90
46336;DHT22;31365;48.858;8.530;2023-11-21T08:05:09;9.20;99.90
46336;DHT22;31365;48.858;8.530;2023-11-21T08:07:50;9.20;99.90
46336;DHT22;31365;48.858;8.530;2023-11-21T08:10:18;9.20;99.90
46336;DHT22;31365;48.858;8.530;2023-11-21T08:12:47;9.20;99.90
46336;DHT22;31365;48.858;8.530;2023-11-21T08:15:18;9.20;99.90
46336;DHT22;31365;48.858;8.530;2023-11-21T08:17:47;9.30;99.90
46336;DHT22;31365;48.858;8.530;2023-11-21T08:20:16;9.30;99.90
46336;DHT22;31365;48.858;8.530;2023-11-21T08:22:45;9.30;99.90
46336;DHT22;31365;48.858;8.530;2023-11-21T08:25:15;9.30;99.90
46336;DHT22;31365;48.858;8.530;2023-11-21T08:27:44;9.30;99.90
46336;DHT22;31365;48.858;8.530;2023-11-21T08:30:12;9.30;99.90
46336;DHT22;31365;48.858;8.530;2023-11-21T08:32:41;9.30;99.90
46336;DHT22;31365;48.858;8.530;2023-11-21T08:35:10;9.30;99.90
46336;DHT22;31365;48.858;8.530;2023-11-21T08:37:39;9.30;99.90
46336;DHT22;31365;48.858;8.530;2023-11-21T08:40:09;9.30;99.90
46336;DHT22;31365;48.858;8.530;2023-11-21T08:42:39;9.30;99.90
46336;DHT22;31365;48.858;8.530;2023-11-21T08:45:08;9.40;99.90
46336;DHT22;31365;48.858;8.530;2023-11-21T08:47:36;9.40;99.90
46336;DHT22;31365;48.858;8.530;2023-11-21T08:50:05;9.40;99.90
46336;DHT22;31365;48.858;8.530;2023-11-21T08:52:36;9.40;99.90
46336;DHT22;31365;48.858;8.530;2023-11-21T08:55:05;9.40;99.90
46336;DHT22;31365;48.858;8.530;2023-11-21T08:57:34;9.40;99.90
46336;DHT22;31365;48.858;8.530;2023-11-21T09:00:04;9.50;99.90
46336;DHT22;31365;48.858;8.530;2023-11-21T09:02:35;9.50;99.90
46336;DHT22;31365;48.858;8.530;2023-11-21T09:05:04;9.50;99.90
46336;DHT22;31365;48.858;8.530;2023-11-21T09:07:33;9.60;99.90
46336;DHT22;31365;48.858;8.530;2023-11-21T09:10:02;9.70;99.90
46336;DHT22;31365;48.858;8.530;2023-11-21T09:12:30;9.60;99.90
46336;DHT22;31365;48.858;8.530;2023-11-21T09:14:59;9.60;99.90
46336;DHT22;31365;48.858;8.530;2023-11-21T09:17:27;9.60;99.90
46336;DHT22;31365;48.858;8.530;2023-11-21T09:19:55;9.50;99.90
46336;DHT22;31365;48.858;8.530;2023-11-21T09:22:24;9.50;99.90
46336;DHT22;31365;48.858;8.530;2023-11-21T09:24:52;9.60;99.90
46336;DHT22;31365;48.858;8.530;2023-11-21T09:27:22;9.60;99.90
46336;DHT22;31365;48.858;8.530;2023-11-21T09:29:50;9.60;99.90
46336;DHT22;31365;48.858;8.530;2023-11-21T09:32:20;9.60;99.90
46336;DHT22;31365;48.858;8.530;2023-11-21T09:34:48;9.60;99.90
46336;DHT22;31365;48.858;8.530;2023-11-21T09:37:17;9.50;99.90
46336;DHT22;31365;48.858;8.530;2023-11-21T09:39:46;9.50;99.90
46336;DHT22;31365;48.858;8.530;2023-11-21T09:42:19;9.50;99.90
46336;DHT22;31365;48.858;8.530;2023-11-21T09:44:56;9.60;99.90
46336;DHT22;31365;48.858;8.530;2023-11-21T09:47:28;9.60;99.90
46336;DHT22;31365;48.858;8.530;2023-11-21T09:49:56;9.60;99.90
46336;DHT22;31365;48.858;8.530;2023-11-21T09:52:28;9.60;99.90
46336;DHT22;31365;48.858;8.530;2023-11-21T09:54:57;9.50;99.90
46336;DHT22;31365;48.858;8.530;2023-11-21T09:57:25;9.50;99.90
46336;DHT22;31365;48.858;8.530;2023-11-21T09:59:56;9.50;99.90
46336;DHT22;31365;48.858;8.530;2023-11-21T10:02:27;9.50;99.90
46336;DHT22;31365;48.858;8.530;2023-11-21T10:04:59;9.50;99.90
46336;DHT22;31365;48.858;8.530;2023-11-21T10:07:28;9.50;99.90
46336;DHT22;31365;48.858;8.530;2023-11-21T10:10:00;9.50;99.90
46336;DHT22;31365;48.858;8.530;2023-11-21T10:12:28;9.50;99.90
46336;DHT22;31365;48.858;8.530;2023-11-21T10:15:00;9.50;99.90
46336;DHT22;31365;48.858;8.530;2023-11-21T10:17:31;9.50;99.90
46336;DHT22;31365;48.858;8.530;2023-11-21T10:20:11;9.40;99.90
46336;DHT22;31365;48.858;8.530;2023-11-21T10:22:41;9.40;99.90
46336;DHT22;31365;48.858;8.530;2023-11-21T10:25:10;9.40;99.90
46336;DHT22;31365;48.858;8.530;2023-11-21T10:27:41;9.40;99.90
46336;DHT22;31365;48.858;8.530;2023-11-21T10:30:11;9.40;99.90
46336;DHT22;31365;48.858;8.530;2023-11-21T10:32:39;9.40;99.90
46336;DHT22;31365;48.858;8.530;2023-11-21T10:35:08;9.40;99.90
46336;DHT22;31365;48.858;8.530;2023-11-21T10:37:38;9.50;99.90
46336;DHT22;31365;48.858;8.530;2023-11-21T10:40:08;9.50;99.90
46336;DHT22;31365;48.858;8.530;2023-11-21T10:42:39;9.50;99.90
46336;DHT22;31365;48.858;8.530;2023-11-21T10:45:09;9.60;99.90
46336;DHT22;31365;48.858;8.530;2023-11-21T10:47:42;9.60;99.90
46336;DHT22;31365;48.858;8.530;2023-11-21T10:50:11;9.60;99.90
46336;DHT22;31365;48.858;8.530;2023-11-21T10:52:39;9.60;99.90
46336;DHT22;31365;48.858;8.530;2023-11-21T10:55:17;9.70;99.90
46336;DHT22;31365;48.858;8.530;2023-11-21T10:57:48;9.70;99.90
46336;DHT22;31365;48.858;8.530;2023-11-21T11:00:16;9.70;99.90
46336;DHT22;31365;48.858;8.530;2023-11-21T11:02:50;9.70;99.90
46336;DHT22;31365;48.858;8.530;2023-11-21T11:05:20;9.80;99.90
46336;DHT22;31365;48.858;8.530;2023-11-21T11:07:50;9.70;99.90
46336;DHT22;31365;48.858;8.530;2023-11-21T11:10:21;9.80;99.90
46336;DHT22;31365;48.858;8.530;2023-11-21T11:12:53;9.80;99.90
46336;DHT22;31365;48.858;8.530;2023-11-21T11:15:22;9.70;99.90
46336;DHT22;31365;48.858;8.530;2023-11-21T11:17:52;9.70;99.90
46336;DHT22;31365;48.858;8.530;2023-11-21T11:20:27;9.70;99.90
46336;DHT22;31365;48.858;8.530;2023-11-21T11:23:13;9.70;99.90
46336;DHT22;31365;48.858;8.530;2023-11-21T11:25:57;9.60;99.90
46336;DHT22;31365;48.858;8.530;2023-11-21T11:28:38;9.60;99.90
46336;DHT22;31365;48.858;8.530;2023-11-21T11:31:27;9.60;99.90
46336;DHT22;31365;48.858;8.530;2023-11-21T11:34:10;9.70;99.90
46336;DHT22;31365;48.858;8.530;2023-11-21T11:36:47;9.70;99.90
46336;DHT22;31365;48.858;8.530;2023-11-21T11:39:29;9.70;99.90
46336;DHT22;31365;48.858;8.530;2023-11-21T11:41:58;9.70;99.90
46336;DHT22;31365;48.858;8.530;2023-11-21T11:44:49;9.70;99.90
46336;DHT22;31365;48.858;8.530;2023-11-21T11:47:22;9.70;99.90
46336;DHT22;31365;48.858;8.530;2023-11-21T11:50:01;9.70;99.90
46336;DHT22;31365;48.858;8.530;2023-11-21T11:52:40;9.70;99.90
46336;DHT22;31365;48.858;8.530;2023-11-21T11:55:14;9.60;99.90
46336;DHT22;31365;48.858;8.530;2023-11-21T11:57:45;9.70;99.90
46336;DHT22;31365;48.858;8.530;2023-11-21T12:00:16;9.70;99.90
46336;DHT22;31365;48.858;8.530;2023-11-21T12:02:48;9.70;99.90
46336;DHT22;31365;48.858;8.530;2023-11-21T12:05:19;9.70;99.90
46336;DHT22;31365;48.858;8.530;2023-11-21T12:07:49;9.70;99.90
46336;DHT22;31365;48.858;8.530;2023-11-21T12:10:21;9.70;99.90
46336;DHT22;31365;48.858;8.530;2023-11-21T12:12:55;9.70;99.90
46336;DHT22;31365;48.858;8.530;2023-11-21T12:15:25;9.70;99.90
46336;DHT22;31365;48.858;8.530;2023-11-21T12:17:56;9.70;99.90
46336;DHT22;31365;48.858;8.530;2023-11-21T12:20:27;9.80;99.90
46336;DHT22;31365;48.858;8.530;2023-11-21T12:22:56;9.80;99.90
46336;DHT22;31365;48.858;8.530;2023-11-21T12:25:27;9.80;99.90
46336;DHT22;31365;48.858;8.530;2023-11-21T12:27:57;9.80;99.90
46336;DHT22;31365;48.858;8.530;2023-11-21T12:30:26;9.80;99.90
46336;DHT22;31365;48.858;8.530;2023-11-21T12:32:58;9.80;99.90
46336;DHT22;31365;48.858;8.530;2023-11-21T12:35:30;9.80;99.90
46336;DHT22;31365;48.858;8.530;2023-11-21T12:38:02;9.90;99.90
46336;DHT22;31365;48.858;8.530;2023-11-21T12:40:31;9.90;99.90
46336;DHT22;31365;48.858;8.530;2023-11-21T12:43:00;9.90;99.90
46336;DHT22;31365;48.858;8.530;2023-11-21T12:45:30;9.90;99.90
46336;DHT22;31365;48.858;8.530;2023-11-21T12:48:01;9.80;99.90
46336;DHT22;31365;48.858;8.530;2023-11-21T12:50:35;9.80;99.90
46336;DHT22;31365;48.858;8.530;2023-11-21T12:53:06;9.80;99.90
46336;DHT22;31365;48.858;8.530;2023-11-21T12:55:36;9.70;99.90
46336;DHT22;31365;48.858;8.530;2023-11-21T12:58:06;9.70;99.90
46336;DHT22;31365;48.858;8.530;2023-11-21T13:00:39;9.70;99.90
46336;DHT22;31365;48.858;8.530;2023-11-21T13:03:12;9.80;99.90
46336;DHT22;31365;48.858;8.530;2023-11-21T13:05:46;9.80;99.90
46336;DHT22;31365;48.858;8.530;2023-11-21T13:08:18;9.80;99.90
46336;DHT22;31365;48.858;8.530;2023-11-21T13:10:51;9.80;99.90
46336;DHT22;31365;48.858;8.530;2023-11-21T13:13:21;9.80;99.90
46336;DHT22;31365;48.858;8.530;2023-11-21T13:15:52;9.80;99.90
46336;DHT22;31365;48.858;8.530;2023-11-21T13:18:23;9.80;99.90
46336;DHT22;31365;48.858;8.530;2023-11-21T13:20:54;9.80;99.90
46336;DHT22;31365;48.858;8.530;2023-11-21T13:23:23;9.80;99.90
46336;DHT22;31365;48.858;8.530;2023-11-21T13:25:52;9.70;99.90
46336;DHT22;31365;48.858;8.530;2023-11-21T13:28:31;9.70;99.90
46336;DHT22;31365;48.858;8.530;2023-11-21T13:31:02;9.70;99.90
46336;DHT22;31365;48.858;8.530;2023-11-21T13:33:37;9.70;99.90
46336;DHT22;31365;48.858;8.530;2023-11-21T13:36:07;9.70;99.90
46336;DHT22;31365;48.858;8.530;2023-11-21T13:38:38;9.80;99.90
46336;DHT22;31365;48.858;8.530;2023-11-21T13:41:10;9.80;99.90
46336;DHT22;31365;48.858;8.530;2023-11-21T13:43:41;9.80;99.90
46336;DHT22;31365;48.858;8.530;2023-11-21T13:46:12;9.90;99.90
46336;DHT22;31365;48.858;8.530;2023-11-21T13:48:44;9.80;99.90
46336;DHT22;31365;48.858;8.530;2023-11-21T13:51:19;9.80;99.90
46336;DHT22;31365;48.858;8.530;2023-11-21T13:53:56;9.80;99.90
46336;DHT22;31365;48.858;8.530;2023-11-21T13:56:24;9.80;99.90
46336;DHT22;31365;48.858;8.530;2023-11-21T13:58:55;9.90;99.90
46336;DHT22;31365;48.858;8.530;2023-11-21T14:01:26;9.90;99.90
46336;DHT22;31365;48.858;8.530;2023-11-21T14:04:14;10.00;99.90
46336;DHT22;31365;48.858;8.530;2023-11-21T14:06:59;10.00;99.90
46336;DHT22;31365;48.858;8.530;2023-11-21T14:09:37;10.00;99.90
46336;DHT22;31365;48.858;8.530;2023-11-21T14:12:11;10.00;99.90
46336;DHT22;31365;48.858;8.530;2023-11-21T14:14:41;10.00;99.90
46336;DHT22;31365;48.858;8.530;2023-11-21T14:17:10;9.90;99.90
46336;DHT22;31365;48.858;8.530;2023-11-21T14:19:38;10.00;99.90
46336;DHT22;31365;48.858;8.530;2023-11-21T14:22:11;10.00;99.90
46336;DHT22;31365;48.858;8.530;2023-11-21T14:24:39;10.00;99.90
46336;DHT22;31365;48.858;8.530;2023-11-21T14:27:10;10.00;99.90
46336;DHT22;31365;48.858;8.530;2023-11-21T14:29:39;10.00;99.90
46336;DHT22;31365;48.858;8.530;2023-11-21T14:32:10;10.00;99.90
46336;DHT22;31365;48.858;8.530;2023-11-21T14:34:38;10.10;99.90
46336;DHT22;31365;48.858;8.530;2023-11-21T14:37:07;10.10;99.90
46336;DHT22;31365;48.858;8.530;2023-11-21T14:39:37;10.10;99.90
46336;DHT22;31365;48.858;8.530;2023-11-21T14:42:11;10.10;99.90
46336;DHT22;31365;48.858;8.530;2023-11-21T14:44:42;10.10;99.90
46336;DHT22;31365;48.858;8.530;2023-11-21T14:47:10;10.10;99.90
46336;DHT22;31365;48.858;8.530;2023-11-21T14:49:43;10.00;99.90
46336;DHT22;31365;48.858;8.530;2023-11-21T14:52:20;10.00;99.90
46336;DHT22;31365;48.858;8.530;2023-11-21T14:55:02;9.90;99.90
46336;DHT22;31365;48.858;8.530;2023-11-21T14:57:57;9.80;99.90
46336;DHT22;31365;48.858;8.530;2023-11-21T15:00:26;9.80;99.90
46336;DHT22;31365;48.858;8.530;2023-11-21T15:03:11;9.80;99.90
46336;DHT22;31365;48.858;8.530;2023-11-21T15:05:53;9.80;99.90
46336;DHT22;31365;48.858;8.530;2023-11-21T15:08:21;9.80;99.90
46336;DHT22;31365;48.858;8.530;2023-11-21T15:10:55;9.70;99.90
46336;DHT22;31365;48.858;8.530;2023-11-21T15:13:24;9.70;99.90
46336;DHT22;31365;48.858;8.530;2023-11-21T15:15:54;9.70;99.90
46336;DHT22;31365;48.858;8.530;2023-11-21T15:18:21;9.80;99.90
46336;DHT22;31365;48.858;8.530;2023-11-21T15:20:51;9.70;99.90
46336;DHT22;31365;48.858;8.530;2023-11-21T15:23:19;9.70;99.90
46336;DHT22;31365;48.858;8.530;2023-11-21T15:25:47;9.70;99.90
46336;DHT22;31365;48.858;8.530;2023-11-21T15:28:16;9.70;99.90
46336;DHT22;31365;48.858;8.530;2023-11-21T15:30:46;9.60;99.90
46336;DHT22;31365;48.858;8.530;2023-11-21T15:33:16;9.70;99.90
46336;DHT22;31365;48.858;8.530;2023-11-21T15:35:44;9.60;99.90
46336;DHT22;31365;48.858;8.530;2023-11-21T15:38:12;9.60;99.90
46336;DHT22;31365;48.858;8.530;2023-11-21T15:40:40;9.60;99.90
46336;DHT22;31365;48.858;8.530;2023-11-21T15:43:10;9.60;99.90
46336;DHT22;31365;48.858;8.530;2023-11-21T15:45:39;9.60;99.90
46336;DHT22;31365;48.858;8.530;2023-11-21T15:48:07;9.60;99.90
46336;DHT22;31365;48.858;8.530;2023-11-21T15:50:36;9.60;99.90
46336;DHT22;31365;48.858;8.530;2023-11-21T15:53:04;9.60;99.90
46336;DHT22;31365;48.858;8.530;2023-11-21T15:55:32;9.60;99.90
46336;DHT22;31365;48.858;8.530;2023-11-21T15:58:03;9.70;99.90
46336;DHT22;31365;48.858;8.530;2023-11-21T16:00:33;9.60;99.90
46336;DHT22;31365;48.858;8.530;2023-11-21T16:03:03;9.60;99.90
46336;DHT22;31365;48.858;8.530;2023-11-21T16:05:31;9.60;99.90